Time,TemperatureF,DewpointF,PressureIn,WindDirection,WindDirectionDegrees,WindSpeedMPH,WindSpeedGustMPH,Humidity,HourlyPrecipIn,Conditions,Clouds,dailyrainin,SoftwareType,DateUTC
2013-01-06 00:08:00,49.2,48.1,30.03,South,179,0.0,0.0,96,0.00,,,0.00,Wunderground v.1.15,2013-01-06 08:08:00,
2013-01-06 00:14:00,49.2,48.1,30.03,South,179,0.0,0.0,96,0.00,,,0.00,Wunderground v.1.15,2013-01-06 08:14:00,
2013-01-06 00:23:00,49.1,48.0,30.03,South,179,0.0,0.0,96,0.00,,,0.00,Wunderground v.1.15,2013-01-06 08:23:00,
2013-01-06 00:29:00,48.9,47.8,30.03,South,179,0.0,0.0,96,0.00,,,0.00,Wunderground v.1.15,2013-01-06 08:29:00,
2013-01-06 00:38:00,49.2,48.1,30.03,South,179,1.0,1.0,96,0.00,,,0.00,Wunderground v.1.15,2013-01-06 08:38:00,
2013-01-06 00:44:00,49.1,48.0,30.03,South,179,1.0,1.0,96,0.00,,,0.00,Wunderground v.1.15,2013-01-06 08:44:00,
2013-01-06 00:53:00,49.1,48.0,30.03,South,179,0.0,1.0,96,0.00,,,0.00,Wunderground v.1.15,2013-01-06 08:53:00,
2013-01-06 00:58:00,49.1,48.0,30.03,South,179,0.0,0.0,96,0.00,,,0.00,Wunderground v.1.15,2013-01-06 08:58:00,
2013-01-06 01:08:00,49.1,48.0,30.02,SE,138,0.0,2.0,96,0.00,,,0.00,Wunderground v.1.15,2013-01-06 09:08:00,
2013-01-06 01:13:00,48.9,47.8,30.02,SE,140,1.0,2.0,96,0.00,,,0.00,Wunderground v.1.15,2013-01-06 09:13:00,
2013-01-06 01:23:00,48.8,47.7,30.02,SE,140,0.0,1.0,96,0.00,,,0.00,Wunderground v.1.15,2013-01-06 09:23:00,
2013-01-06 01:28:00,48.8,47.7,30.02,SE,134,0.0,0.0,96,0.00,,,0.00,Wunderground v.1.15,2013-01-06 09:28:00,
2013-01-06 01:38:00,48.6,47.5,30.03,SE,130,1.0,1.0,96,0.00,,,0.00,Wunderground v.1.15,2013-01-06 09:38:00,
2013-01-06 01:43:00,48.5,47.4,30.03,ESE,120,1.0,2.0,96,0.00,,,0.00,Wunderground v.1.15,2013-01-06 09:43:00,
2013-01-06 01:53:00,48.0,46.9,30.03,SSE,161,1.0,2.0,96,0.00,,,0.00,Wunderground v.1.15,2013-01-06 09:53:00,
2013-01-06 01:58:00,47.7,46.6,30.03,SE,131,2.0,2.0,96,0.00,,,0.00,Wunderground v.1.15,2013-01-06 09:58:00,
2013-01-06 02:08:00,47.4,46.3,30.04,ESE,113,1.0,1.0,96,0.00,,,0.00,Wunderground v.1.15,2013-01-06 10:08:00,
2013-01-06 02:13:00,47.4,46.3,30.04,ESE,113,1.0,1.0,96,0.00,,,0.00,Wunderground v.1.15,2013-01-06 10:13:00,
2013-01-06 02:23:00,47.4,46.3,30.03,ESE,113,0.0,0.0,96,0.00,,,0.00,Wunderground v.1.15,2013-01-06 10:23:00,
2013-01-06 02:29:00,47.3,46.2,30.03,East,80,0.0,3.0,96,0.00,,,0.00,Wunderground v.1.15,2013-01-06 10:29:00,
2013-01-06 02:39:00,46.7,45.3,30.03,NE,42,1.0,1.0,95,0.00,,,0.00,Wunderground v.1.15,2013-01-06 10:39:00,
2013-01-06 02:44:00,46.5,45.1,30.03,NE,42,1.0,1.0,95,0.00,,,0.00,Wunderground v.1.15,2013-01-06 10:44:00,
2013-01-06 02:54:00,46.4,45.0,30.03,South,181,0.0,1.0,95,0.00,,,0.00,Wunderground v.1.15,2013-01-06 10:54:00,
2013-01-06 02:59:00,46.2,44.8,30.03,South,179,1.0,1.0,95,0.00,,,0.00,Wunderground v.1.15,2013-01-06 10:59:00,
2013-01-06 03:09:00,46.0,44.6,30.04,SE,131,0.0,0.0,95,0.00,,,0.00,Wunderground v.1.15,2013-01-06 11:09:00,
2013-01-06 03:14:00,45.8,44.4,30.04,SE,131,0.0,1.0,95,0.00,,,0.00,Wunderground v.1.15,2013-01-06 11:14:00,
2013-01-06 03:24:00,45.7,44.4,30.03,SE,131,0.0,0.0,95,0.00,,,0.00,Wunderground v.1.15,2013-01-06 11:24:00,
2013-01-06 03:29:00,45.7,44.1,30.03,SE,131,0.0,0.0,94,0.00,,,0.00,Wunderground v.1.15,2013-01-06 11:29:00,
2013-01-06 03:39:00,45.8,44.4,30.03,SE,131,0.0,0.0,95,0.00,,,0.00,Wunderground v.1.15,2013-01-06 11:39:00,
2013-01-06 03:44:00,46.0,44.6,30.03,SE,131,0.0,0.0,95,0.00,,,0.00,Wunderground v.1.15,2013-01-06 11:44:00,
2013-01-06 03:54:00,46.0,44.4,30.04,ENE,65,0.0,1.0,94,0.00,,,0.00,Wunderground v.1.15,2013-01-06 11:54:00,
2013-01-06 03:59:00,45.8,44.2,30.04,North,6,1.0,2.0,94,0.00,,,0.00,Wunderground v.1.15,2013-01-06 11:59:00,
2013-01-06 04:09:00,45.5,43.9,30.04,NE,34,1.0,1.0,94,0.00,,,0.00,Wunderground v.1.15,2013-01-06 12:09:00,
2013-01-06 04:14:00,45.4,43.8,30.04,NE,49,2.0,3.0,94,0.00,,,0.00,Wunderground v.1.15,2013-01-06 12:14:00,
2013-01-06 04:24:00,45.4,43.5,30.05,NE,54,2.0,2.0,93,0.00,,,0.00,Wunderground v.1.15,2013-01-06 12:24:00,
2013-01-06 04:29:00,45.5,43.6,30.05,NE,54,1.0,1.0,93,0.00,,,0.00,Wunderground v.1.15,2013-01-06 12:29:00,
2013-01-06 04:39:00,45.5,43.3,30.05,NE,54,1.0,1.0,92,0.00,,,0.00,Wunderground v.1.15,2013-01-06 12:39:00,
2013-01-06 04:44:00,45.5,43.3,30.05,NE,54,0.0,1.0,92,0.00,,,0.00,Wunderground v.1.15,2013-01-06 12:44:00,
2013-01-06 04:54:00,45.5,43.3,30.06,North,353,1.0,3.0,92,0.00,,,0.00,Wunderground v.1.15,2013-01-06 12:54:00,
2013-01-06 04:59:00,45.5,43.3,30.06,North,352,1.0,1.0,92,0.00,,,0.00,Wunderground v.1.15,2013-01-06 12:59:00,
2013-01-06 05:09:00,45.5,43.3,30.06,NE,42,1.0,2.0,92,0.00,,,0.00,Wunderground v.1.15,2013-01-06 13:09:00,
2013-01-06 05:14:00,45.7,43.2,30.06,ENE,62,2.0,2.0,91,0.00,,,0.00,Wunderground v.1.15,2013-01-06 13:14:00,
2013-01-06 05:24:00,45.7,43.2,30.06,ENE,62,0.0,1.0,91,0.00,,,0.00,Wunderground v.1.15,2013-01-06 13:24:00,
2013-01-06 05:29:00,45.7,43.2,30.06,NNE,14,1.0,1.0,91,0.00,,,0.00,Wunderground v.1.15,2013-01-06 13:29:00,
2013-01-06 05:39:00,45.8,43.3,30.06,North,350,0.0,0.0,91,0.00,,,0.00,Wunderground v.1.15,2013-01-06 13:39:00,
2013-01-06 05:44:00,45.8,43.3,30.06,NNW,346,1.0,2.0,91,0.00,,,0.00,Wunderground v.1.15,2013-01-06 13:44:00,
2013-01-06 05:54:00,45.8,43.3,30.08,North,357,3.0,3.0,91,0.00,,,0.00,Wunderground v.1.15,2013-01-06 13:54:00,
2013-01-06 05:59:00,45.7,43.2,30.08,North,349,3.0,3.0,91,0.00,,,0.00,Wunderground v.1.15,2013-01-06 13:59:00,
2013-01-06 06:09:00,45.5,43.0,30.09,North,349,1.0,1.0,91,0.00,,,0.00,Wunderground v.1.15,2013-01-06 14:09:00,
2013-01-06 06:14:00,45.5,43.0,30.09,North,349,1.0,1.0,91,0.00,,,0.00,Wunderground v.1.15,2013-01-06 14:14:00,
2013-01-06 06:24:00,45.5,43.3,30.09,North,349,1.0,1.0,92,0.00,,,0.00,Wunderground v.1.15,2013-01-06 14:24:00,
2013-01-06 06:29:00,45.4,43.2,30.09,NNW,343,1.0,2.0,92,0.00,,,0.00,Wunderground v.1.15,2013-01-06 14:29:00,
2013-01-06 06:39:00,45.4,43.5,30.09,NNW,342,1.0,1.0,93,0.00,,,0.01,Wunderground v.1.15,2013-01-06 14:39:00,
2013-01-06 06:44:00,45.4,43.5,30.09,NNW,337,1.0,1.0,93,0.00,,,0.01,Wunderground v.1.15,2013-01-06 14:44:00,
2013-01-06 06:54:00,45.2,43.6,30.10,NNW,337,2.0,2.0,94,0.00,,,0.01,Wunderground v.1.15,2013-01-06 14:54:00,
2013-01-06 06:59:00,45.2,43.6,30.10,NNW,337,1.0,1.0,94,0.00,,,0.01,Wunderground v.1.15,2013-01-06 14:59:00,
2013-01-06 07:08:00,45.2,43.6,30.10,NNW,337,1.0,1.0,94,0.00,,,0.01,Wunderground v.1.15,2013-01-06 15:08:00,
2013-01-06 07:14:00,45.2,43.6,30.10,NNW,337,1.0,1.0,94,0.00,,,0.01,Wunderground v.1.15,2013-01-06 15:14:00,
2013-01-06 07:23:00,45.2,43.6,30.12,NNW,337,0.0,1.0,94,0.00,,,0.02,Wunderground v.1.15,2013-01-06 15:23:00,
2013-01-06 07:29:00,45.2,43.6,30.12,NNW,337,0.0,0.0,94,0.00,,,0.02,Wunderground v.1.15,2013-01-06 15:29:00,
2013-01-06 07:39:00,45.2,43.6,30.11,NNW,337,0.0,0.0,94,0.00,,,0.02,Wunderground v.1.15,2013-01-06 15:39:00,
2013-01-06 07:44:00,45.2,43.6,30.11,NNW,337,0.0,0.0,94,0.00,,,0.02,Wunderground v.1.15,2013-01-06 15:44:00,
2013-01-06 07:53:00,45.1,43.5,30.11,NNW,337,0.0,0.0,94,0.00,,,0.02,Wunderground v.1.15,2013-01-06 15:53:00,
2013-01-06 07:59:00,45.1,43.5,30.11,NNW,337,0.0,0.0,94,0.00,,,0.02,Wunderground v.1.15,2013-01-06 15:59:00,
2013-01-06 08:08:00,45.1,43.5,30.11,NNW,337,0.0,0.0,94,0.00,,,0.02,Wunderground v.1.15,2013-01-06 16:08:00,
2013-01-06 08:14:00,45.1,43.8,30.11,NNW,337,0.0,0.0,95,0.00,,,0.02,Wunderground v.1.15,2013-01-06 16:14:00,
2013-01-06 08:23:00,45.1,43.8,30.11,NNW,337,0.0,0.0,95,0.00,,,0.02,Wunderground v.1.15,2013-01-06 16:23:00,
2013-01-06 08:29:00,45.4,44.1,30.11,NNW,337,0.0,1.0,95,0.00,,,0.02,Wunderground v.1.15,2013-01-06 16:29:00,
2013-01-06 08:38:00,45.7,44.4,30.13,NNW,337,1.0,1.0,95,0.00,,,0.02,Wunderground v.1.15,2013-01-06 16:38:00,
2013-01-06 08:44:00,45.8,44.4,30.13,NNW,337,0.0,1.0,95,0.00,,,0.02,Wunderground v.1.15,2013-01-06 16:44:00,
2013-01-06 08:53:00,46.0,44.6,30.13,NNW,337,0.0,0.0,95,0.00,,,0.02,Wunderground v.1.15,2013-01-06 16:53:00,
2013-01-06 08:59:00,46.0,44.6,30.13,NNW,337,0.0,0.0,95,0.00,,,0.02,Wunderground v.1.15,2013-01-06 16:59:00,
2013-01-06 09:08:00,46.1,44.7,30.15,NNW,337,0.0,0.0,95,0.00,,,0.02,Wunderground v.1.15,2013-01-06 17:08:00,
2013-01-06 09:14:00,46.1,44.7,30.15,NNW,337,0.0,0.0,95,0.00,,,0.02,Wunderground v.1.15,2013-01-06 17:14:00,
2013-01-06 09:23:00,46.1,44.7,30.15,NNW,337,1.0,1.0,95,0.00,,,0.02,Wunderground v.1.15,2013-01-06 17:23:00,
2013-01-06 09:28:00,46.1,44.7,30.15,NNW,337,0.0,0.0,95,0.00,,,0.02,Wunderground v.1.15,2013-01-06 17:28:00,
2013-01-06 09:38:00,46.1,44.5,30.15,NNW,337,0.0,1.0,94,0.00,,,0.02,Wunderground v.1.15,2013-01-06 17:38:00,
2013-01-06 09:44:00,46.1,44.7,30.15,NNW,337,0.0,1.0,95,0.00,,,0.02,Wunderground v.1.15,2013-01-06 17:44:00,
2013-01-06 09:53:00,46.1,44.5,30.16,NNW,337,0.0,0.0,94,0.00,,,0.02,Wunderground v.1.15,2013-01-06 17:53:00,
2013-01-06 09:58:00,46.1,44.5,30.16,NNW,337,0.0,0.0,94,0.00,,,0.02,Wunderground v.1.15,2013-01-06 17:58:00,
2013-01-06 10:08:00,46.1,44.5,30.16,NNW,337,0.0,0.0,94,0.00,,,0.02,Wunderground v.1.15,2013-01-06 18:08:00,
2013-01-06 10:13:00,46.2,44.6,30.16,NNW,337,0.0,0.0,94,0.00,,,0.02,Wunderground v.1.15,2013-01-06 18:13:00,
2013-01-06 10:23:00,46.8,45.2,30.15,NNW,337,0.0,0.0,94,0.00,,,0.02,Wunderground v.1.15,2013-01-06 18:23:00,
2013-01-06 10:28:00,47.0,45.4,30.15,NNW,337,0.0,0.0,94,0.00,,,0.02,Wunderground v.1.15,2013-01-06 18:28:00,
2013-01-06 10:39:00,47.0,45.1,30.16,NNW,340,1.0,2.0,93,0.00,,,0.02,Wunderground v.1.15,2013-01-06 18:39:00,
2013-01-06 10:44:00,47.1,45.2,30.16,NNW,340,1.0,2.0,93,0.00,,,0.02,Wunderground v.1.15,2013-01-06 18:44:00,
2013-01-06 10:54:00,47.1,44.9,30.15,NNW,344,1.0,2.0,92,0.00,,,0.02,Wunderground v.1.15,2013-01-06 18:54:00,
2013-01-06 10:59:00,47.3,44.8,30.15,NNW,344,2.0,2.0,91,0.00,,,0.02,Wunderground v.1.15,2013-01-06 18:59:00,
2013-01-06 11:09:00,47.3,44.8,30.15,North,359,1.0,2.0,91,0.00,,,0.02,Wunderground v.1.15,2013-01-06 19:09:00,
2013-01-06 11:14:00,47.3,44.8,30.15,North,3,2.0,2.0,91,0.00,,,0.02,Wunderground v.1.15,2013-01-06 19:14:00,
2013-01-06 11:24:00,47.1,44.3,30.15,NNW,347,2.0,2.0,90,0.00,,,0.02,Wunderground v.1.15,2013-01-06 19:24:00,
2013-01-06 11:29:00,47.1,44.3,30.15,North,359,2.0,2.0,90,0.00,,,0.02,Wunderground v.1.15,2013-01-06 19:29:00,
2013-01-06 11:39:00,47.3,44.5,30.15,North,8,1.0,1.0,90,0.00,,,0.02,Wunderground v.1.15,2013-01-06 19:39:00,
2013-01-06 11:44:00,47.4,44.6,30.15,North,359,1.0,1.0,90,0.00,,,0.02,Wunderground v.1.15,2013-01-06 19:44:00,
2013-01-06 11:54:00,47.7,44.9,30.14,North,0,1.0,2.0,90,0.00,,,0.02,Wunderground v.1.15,2013-01-06 19:54:00,
2013-01-06 11:59:00,47.7,44.6,30.14,NNE,17,1.0,1.0,89,0.00,,,0.02,Wunderground v.1.15,2013-01-06 19:59:00,
2013-01-06 12:09:00,48.0,44.9,30.13,NNE,14,1.0,1.0,89,0.00,,,0.02,Wunderground v.1.15,2013-01-06 20:09:00,
2013-01-06 12:14:00,48.0,44.9,30.13,NNE,14,1.0,1.0,89,0.00,,,0.02,Wunderground v.1.15,2013-01-06 20:14:00,
2013-01-06 12:24:00,48.3,44.9,30.13,North,353,2.0,3.0,88,0.00,,,0.02,Wunderground v.1.15,2013-01-06 20:24:00,
2013-01-06 12:29:00,48.5,45.1,30.13,NNE,18,2.0,3.0,88,0.00,,,0.02,Wunderground v.1.15,2013-01-06 20:29:00,
2013-01-06 12:39:00,48.8,45.1,30.13,North,0,2.0,2.0,87,0.00,,,0.02,Wunderground v.1.15,2013-01-06 20:39:00,
2013-01-06 12:44:00,49.1,45.1,30.13,NNW,342,2.0,3.0,86,0.00,,,0.02,Wunderground v.1.15,2013-01-06 20:44:00,
2013-01-06 12:54:00,49.6,45.6,30.12,North,0,1.0,3.0,86,0.00,,,0.02,Wunderground v.1.15,2013-01-06 20:54:00,
2013-01-06 12:59:00,49.6,45.0,30.12,NE,52,1.0,5.0,84,0.00,,,0.02,Wunderground v.1.15,2013-01-06 20:59:00,
2013-01-06 13:09:00,49.9,44.9,30.11,NNE,13,2.0,2.0,83,0.00,,,0.02,Wunderground v.1.15,2013-01-06 21:09:00,
2013-01-06 13:14:00,50.2,44.9,30.11,NW,320,2.0,2.0,82,0.00,,,0.02,Wunderground v.1.15,2013-01-06 21:14:00,
2013-01-06 13:19:00,50.1,44.5,30.12,North,0,3.0,3.0,81,0.00,,,0.02,Wunderground v.1.15,2013-01-06 21:19:00,
2013-01-06 13:24:00,49.9,44.3,30.12,North,0,3.0,3.0,81,0.00,,,0.02,Wunderground v.1.15,2013-01-06 21:24:00,
2013-01-06 13:29:00,49.8,44.2,30.12,NNW,346,3.0,3.0,81,0.00,,,0.02,Wunderground v.1.15,2013-01-06 21:29:00,
2013-01-06 13:39:00,49.6,44.0,30.13,North,353,3.0,3.0,81,0.00,,,0.02,Wunderground v.1.15,2013-01-06 21:39:00,
2013-01-06 13:44:00,49.5,44.2,30.13,North,359,2.0,6.0,82,0.00,,,0.02,Wunderground v.1.15,2013-01-06 21:44:00,
2013-01-06 13:54:00,49.5,43.9,30.12,North,0,3.0,3.0,81,0.00,,,0.02,Wunderground v.1.15,2013-01-06 21:54:00,
2013-01-06 13:59:00,49.5,43.9,30.12,North,8,3.0,7.0,81,0.00,,,0.02,Wunderground v.1.15,2013-01-06 21:59:00,
2013-01-06 14:09:00,49.6,44.0,30.12,NNW,346,3.0,3.0,81,0.00,,,0.02,Wunderground v.1.15,2013-01-06 22:09:00,
2013-01-06 14:14:00,49.6,44.0,30.12,North,0,2.0,3.0,81,0.00,,,0.02,Wunderground v.1.15,2013-01-06 22:14:00,
2013-01-06 14:24:00,49.6,43.7,30.12,North,0,2.0,6.0,80,0.00,,,0.02,Wunderground v.1.15,2013-01-06 22:24:00,
2013-01-06 14:29:00,49.6,43.7,30.12,North,0,3.0,3.0,80,0.00,,,0.02,Wunderground v.1.15,2013-01-06 22:29:00,
2013-01-06 14:39:00,49.6,43.4,30.12,North,8,2.0,2.0,79,0.00,,,0.02,Wunderground v.1.15,2013-01-06 22:39:00,
2013-01-06 14:44:00,49.6,43.4,30.12,North,359,2.0,5.0,79,0.00,,,0.02,Wunderground v.1.15,2013-01-06 22:44:00,
2013-01-06 14:54:00,49.8,43.5,30.12,North,0,2.0,2.0,79,0.00,,,0.02,Wunderground v.1.15,2013-01-06 22:54:00,
2013-01-06 14:59:00,49.8,43.2,30.12,NNE,14,2.0,2.0,78,0.00,,,0.02,Wunderground v.1.15,2013-01-06 22:59:00,
2013-01-06 15:08:00,49.9,43.3,30.12,North,0,1.0,2.0,78,0.00,,,0.02,Wunderground v.1.15,2013-01-06 23:08:00,
2013-01-06 15:14:00,49.9,43.0,30.12,North,353,2.0,2.0,77,0.00,,,0.02,Wunderground v.1.15,2013-01-06 23:14:00,
2013-01-06 15:23:00,50.1,43.5,30.13,North,352,1.0,1.0,78,0.00,,,0.02,Wunderground v.1.15,2013-01-06 23:23:00,
2013-01-06 15:29:00,50.1,43.2,30.13,North,359,1.0,1.0,77,0.00,,,0.02,Wunderground v.1.15,2013-01-06 23:29:00,
2013-01-06 15:38:00,50.1,43.5,30.13,NNW,343,1.0,3.0,78,0.00,,,0.02,Wunderground v.1.15,2013-01-06 23:38:00,
2013-01-06 15:44:00,49.9,43.3,30.13,NNW,332,1.0,3.0,78,0.00,,,0.02,Wunderground v.1.15,2013-01-06 23:44:00,
2013-01-06 15:53:00,49.9,43.6,30.13,NNW,332,1.0,2.0,79,0.00,,,0.02,Wunderground v.1.15,2013-01-06 23:53:00,
2013-01-06 15:59:00,49.9,43.6,30.13,NNW,337,1.0,1.0,79,0.00,,,0.02,Wunderground v.1.15,2013-01-06 23:59:00,
2013-01-06 16:08:00,49.9,43.6,30.13,NNW,337,0.0,2.0,79,0.00,,,0.02,Wunderground v.1.15,2013-01-07 00:08:00,
2013-01-06 16:14:00,49.9,43.3,30.13,NNW,337,1.0,2.0,78,0.00,,,0.02,Wunderground v.1.15,2013-01-07 00:14:00,
2013-01-06 16:23:00,49.8,43.2,30.13,NNW,337,1.0,1.0,78,0.00,,,0.02,Wunderground v.1.15,2013-01-07 00:23:00,
2013-01-06 16:28:00,49.8,43.2,30.13,NNW,337,0.0,0.0,78,0.00,,,0.02,Wunderground v.1.15,2013-01-07 00:28:00,
2013-01-06 16:38:00,49.8,43.2,30.13,NNW,337,0.0,0.0,78,0.00,,,0.02,Wunderground v.1.15,2013-01-07 00:38:00,
2013-01-06 16:44:00,49.6,43.4,30.13,NNW,337,0.0,0.0,79,0.00,,,0.02,Wunderground v.1.15,2013-01-07 00:44:00,
2013-01-06 16:53:00,49.2,43.3,30.13,NNW,337,0.0,0.0,80,0.00,,,0.02,Wunderground v.1.15,2013-01-07 00:53:00,
2013-01-06 16:59:00,49.1,43.8,30.13,NNW,337,0.0,2.0,82,0.00,,,0.02,Wunderground v.1.15,2013-01-07 00:59:00,
2013-01-06 17:08:00,48.6,44.0,30.14,NNW,337,0.0,0.0,84,0.00,,,0.02,Wunderground v.1.15,2013-01-07 01:08:00,
2013-01-06 17:14:00,48.3,43.7,30.14,NNW,337,0.0,0.0,84,0.00,,,0.02,Wunderground v.1.15,2013-01-07 01:14:00,
2013-01-06 17:23:00,47.9,43.6,30.13,NNW,337,0.0,1.0,85,0.00,,,0.02,Wunderground v.1.15,2013-01-07 01:23:00,